SNCO2: N. Canadian River at Shawnee, OK

Data processed at Sat Dec 09 2017 23:59


All information presented herein is the property of the government of the United States of America and may be revised or deleted at any time without prior notice.
Dissemination of this information without the expressed written consent of the Public Affairs Office, Tulsa District U.S. Army Corps of Engineers is strictly prohibited.
These data are gathered electronically and, as presented, have not undergone any form of quality control. These data are not guaranteed to be valid or correct.
Go to home page.
Go to station list.

Upstream stations:

Downstream station:
Previous Day
Next Day
Current Day
    
SHEF ID:       SNCO2     North Canadian River at Shawnee,
STATION TYPE:  

                STAGE  RIV-FLOW  BAT-LOAD
                   ft       cfs      volt
              Ccp-Rev   Ccp-Rev   Ccp-Rev
(US/Central)
12/07 00:00      9.64       106     12.65
12/07 01:00      9.66       111     12.65
12/07 02:00      9.55        89     12.65
12/07 03:00      9.49        78     12.60
12/07 04:00      9.64       106     12.60
12/07 05:00      9.56        90     12.54
12/07 06:00      9.61       100     12.54
12/07 07:00      9.71       122     12.54
12/07 08:00      9.59        96     12.48
12/07 09:00      9.52        83     13.07
12/07 10:00      9.59        96     13.48
12/07 11:00      9.65       108     13.53
12/07 12:00      9.59        96     13.53
12/07 13:00      9.61       100     13.53
12/07 14:00      9.55        89     13.48
12/07 15:00      9.53        85     13.42
12/07 16:00      9.55        89     13.48
12/07 17:00      9.63       104     13.30
12/07 18:00      9.68       115     13.12
12/07 19:00      9.68       115     12.95
12/07 20:00      9.67       113     12.83
12/07 21:00      9.66       111     12.77
12/07 22:00      9.65       108     12.71
12/07 23:00      9.64       106     12.71